Time;durP1;ratioP1;P1;durP2;ratioP2;P2;SDS_P1;SDS_P2;PMS_P1;PMS_P2;Temp;Humidity;BMP_temperature;BMP_pressure;BME280_temperature;BME280_humidity;BME280_pressure;Samples;Min_cycle;Max_cycle;Signal;HPM_P1;HPM_P2
2023/01/28 00:02:20;;;;;;;40.38;23.25;;;0.10;82.10;;;;;;5058250;28;20022;-73
2023/01/28 00:04:46;;;;;;;44.40;23.52;;;0.10;82.20;;;;;;4991226;28;20129;-73
2023/01/28 00:07:11;;;;;;;47.92;25.52;;;0.10;82.10;;;;;;4991142;28;20039;-73
2023/01/28 00:09:38;;;;;;;44.80;23.73;;;0.20;82.20;;;;;;4991339;28;20022;-73
2023/01/28 00:12:04;;;;;;;41.38;23.40;;;0.20;81.80;;;;;;4991038;28;20056;-73
2023/01/28 00:14:30;;;;;;;38.50;23.08;;;0.10;81.90;;;;;;4990771;28;20106;-73
2023/01/28 00:16:55;;;;;;;43.50;24.50;;;0.10;82.00;;;;;;4991173;28;20505;-73
2023/01/28 00:19:21;;;;;;;45.35;25.30;;;0.00;82.40;;;;;;4990522;28;20079;-73
2023/01/28 00:21:46;;;;;;;45.60;25.35;;;-0.10;82.60;;;;;;4991030;28;20050;-73
2023/01/28 00:24:12;;;;;;;43.83;22.98;;;-0.10;82.80;;;;;;4991117;28;20664;-73
2023/01/28 00:26:37;;;;;;;47.00;25.02;;;-0.10;83.00;;;;;;4991111;28;20483;-73
2023/01/28 00:29:03;;;;;;;40.38;22.58;;;-0.10;83.40;;;;;;4990995;28;20227;-73
2023/01/28 00:31:28;;;;;;;44.72;25.00;;;-0.10;83.30;;;;;;4990685;28;20114;-73
2023/01/28 00:33:55;;;;;;;41.10;22.58;;;-0.10;83.40;;;;;;4990842;28;20030;-74
2023/01/28 00:36:23;;;;;;;48.25;25.48;;;0.00;83.50;;;;;;4991062;28;20111;-73
2023/01/28 00:38:54;;;;;;;45.13;25.33;;;-0.10;83.70;;;;;;4990890;28;20107;-76
2023/01/28 00:41:21;;;;;;;46.20;24.48;;;-0.20;83.90;;;;;;4990905;28;20056;-76
2023/01/28 00:43:47;;;;;;;36.78;22.08;;;-0.20;84.10;;;;;;4990998;28;20034;-76
2023/01/28 00:46:13;;;;;;;41.38;23.58;;;-0.20;84.10;;;;;;4990715;28;20098;-76
2023/01/28 00:48:40;;;;;;;41.33;23.90;;;-0.20;84.10;;;;;;4990794;28;20057;-76
2023/01/28 00:51:07;;;;;;;39.72;22.73;;;-0.20;84.20;;;;;;4990911;28;20097;-76
2023/01/28 00:53:34;;;;;;;40.33;22.88;;;-0.20;84.20;;;;;;4990823;28;20042;-77
2023/01/28 00:56:00;;;;;;;38.88;22.60;;;-0.10;84.20;;;;;;4990820;28;20110;-73
2023/01/28 00:58:26;;;;;;;42.88;24.73;;;-0.10;84.00;;;;;;4990789;28;20116;-77
2023/01/28 01:00:52;;;;;;;42.17;23.70;;;-0.20;84.00;;;;;;4990472;28;20421;-77
2023/01/28 01:03:18;;;;;;;41.95;24.45;;;-0.20;84.30;;;;;;4990615;28;20022;-77
2023/01/28 01:05:44;;;;;;;43.78;24.25;;;-0.30;84.60;;;;;;4990705;28;20091;-77
2023/01/28 01:08:09;;;;;;;41.95;24.25;;;-0.30;84.70;;;;;;4990430;28;20030;-77
2023/01/28 01:10:36;;;;;;;43.78;24.80;;;-0.20;84.70;;;;;;4990624;28;20027;-78
2023/01/28 01:13:02;;;;;;;40.42;24.33;;;-0.30;84.70;;;;;;4990604;28;20029;-76
2023/01/28 01:15:28;;;;;;;38.22;23.23;;;-0.20;84.70;;;;;;4990546;28;20030;-74
2023/01/28 01:17:53;;;;;;;38.83;22.70;;;-0.20;84.50;;;;;;5057355;28;20113;-74
2023/01/28 01:20:25;;;;;;;38.03;23.30;;;-0.20;84.10;;;;;;4990329;28;20585;-73
2023/01/28 01:22:51;;;;;;;40.88;24.30;;;-0.30;84.40;;;;;;5057797;28;20027;-73
2023/01/28 01:25:17;;;;;;;41.70;25.40;;;-0.30;84.70;;;;;;4991566;28;20041;-74
2023/01/28 01:27:47;;;;;;;39.13;23.95;;;-0.40;84.80;;;;;;4993554;28;20031;-73
2023/01/28 01:30:14;;;;;;;38.95;24.52;;;-0.40;85.00;;;;;;4993513;28;20044;-74
2023/01/28 01:32:39;;;;;;;37.65;22.80;;;-0.40;85.00;;;;;;4993837;28;20026;-77
2023/01/28 01:35:06;;;;;;;37.20;23.40;;;-0.30;85.20;;;;;;4993394;28;20026;-73
2023/01/28 01:37:33;;;;;;;39.65;23.55;;;-0.30;85.00;;;;;;4993561;28;20096;-74
2023/01/28 01:40:00;;;;;;;38.88;23.65;;;-0.30;84.70;;;;;;4993313;28;20083;-73
2023/01/28 01:42:27;;;;;;;36.47;22.77;;;-0.20;84.70;;;;;;4993468;28;20025;-74
2023/01/28 01:45:06;;;;;;;33.85;21.73;;;-0.20;84.60;;;;;;4993393;28;20025;-73
2023/01/28 01:47:51;;;;;;;42.17;23.38;;;-0.20;84.40;;;;;;4993403;28;20547;-74
2023/01/28 01:50:33;;;;;;;41.85;25.55;;;-0.20;84.40;;;;;;4993536;28;20517;-73
2023/01/28 01:53:05;;;;;;;36.10;23.50;;;-0.20;84.50;;;;;;5060749;28;20125;-75
2023/01/28 01:55:34;;;;;;;38.38;23.35;;;-0.20;84.60;;;;;;4993219;28;20030;-74
2023/01/28 01:58:05;;;;;;;38.20;22.70;;;-0.20;84.80;;;;;;4993345;28;20117;-73
2023/01/28 02:00:30;;;;;;;40.63;24.90;;;-0.20;84.80;;;;;;4993329;28;20023;-74
2023/01/28 02:02:57;;;;;;;43.88;25.23;;;-0.20;84.60;;;;;;4993071;28;20018;-74
2023/01/28 02:05:23;;;;;;;44.13;26.73;;;-0.20;84.70;;;;;;4993198;28;20479;-74
2023/01/28 02:07:53;;;;;;;41.10;24.95;;;-0.30;84.50;;;;;;4993000;28;20076;-74
2023/01/28 02:10:20;;;;;;;43.00;26.05;;;-0.30;84.70;;;;;;4992953;28;20023;-74
2023/01/28 02:12:55;;;;;;;40.00;24.02;;;-0.30;85.20;;;;;;4992882;28;20038;-73
2023/01/28 02:15:23;;;;;;;39.65;23.33;;;-0.30;85.30;;;;;;4993096;28;20026;-73
2023/01/28 02:17:50;;;;;;;43.53;25.17;;;-0.30;85.30;;;;;;4992947;28;20084;-73
2023/01/28 02:20:22;;;;;;;37.83;23.35;;;-0.20;85.00;;;;;;4992570;28;20030;-74
2023/01/28 02:23:16;;;;;;;39.92;24.08;;;-0.20;84.90;;;;;;4992835;28;20472;-73
2023/01/28 02:26:09;;;;;;;44.22;25.92;;;-0.20;84.80;;;;;;4992891;28;20443;-73
2023/01/28 02:29:12;;;;;;;38.80;22.83;;;-0.20;85.00;;;;;;4992604;28;20058;-74
2023/01/28 02:31:44;;;;;;;40.20;24.13;;;-0.20;84.80;;;;;;4969887;28;20057;-73
2023/01/28 02:34:20;;;;;;;40.63;22.92;;;-0.10;85.50;;;;;;4992693;28;20027;-73
2023/01/28 02:37:01;;;;;;;40.22;23.48;;;-0.10;84.50;;;;;;4992439;28;20033;-74
2023/01/28 02:39:32;;;;;;;41.90;24.25;;;-0.10;84.20;;;;;;4992554;28;20075;-74
2023/01/28 02:42:24;;;;;;;41.88;22.95;;;-0.10;84.10;;;;;;4992415;28;20031;-73
2023/01/28 02:44:49;;;;;;;37.78;22.88;;;-0.10;84.20;;;;;;4992393;28;20034;-74
2023/01/28 02:50:06;;;;;;;38.03;24.00;;;-0.10;84.50;;;;;;4992787;28;20034;-73
2023/01/28 02:53:43;;;;;;;41.38;23.15;;;-0.10;84.50;;;;;;4992346;28;20467;-74
2023/01/28 02:56:29;;;;;;;37.13;21.95;;;-0.10;84.40;;;;;;5048789;28;20144;-74
2023/01/28 02:59:33;;;;;;;37.80;22.85;;;-0.10;84.20;;;;;;4992329;28;20026;-74
2023/01/28 03:02:22;;;;;;;36.88;21.40;;;0.00;84.10;;;;;;4990703;28;20156;-73
2023/01/28 03:05:10;;;;;;;35.65;20.75;;;0.00;83.80;;;;;;4992152;28;20118;-74
2023/01/28 03:07:38;;;;;;;37.20;21.38;;;0.00;83.70;;;;;;4992091;28;20030;-73
2023/01/28 03:10:07;;;;;;;37.65;21.17;;;0.00;83.70;;;;;;4992125;28;20487;-74
2023/01/28 03:37:59;;;;;;;37.13;22.45;;;-0.20;84.10;;;;;;4991791;28;20403;-76
2023/01/28 03:40:26;;;;;;;37.08;22.27;;;-0.20;84.20;;;;;;4991654;28;20030;-75
2023/01/28 03:42:53;;;;;;;33.97;20.88;;;-0.20;85.10;;;;;;4991608;28;20471;-73
2023/01/28 03:45:20;;;;;;;37.47;22.20;;;-0.20;84.40;;;;;;4991652;28;20092;-74
2023/01/28 03:47:46;;;;;;;38.53;21.58;;;-0.10;84.50;;;;;;4990764;28;20085;-73
2023/01/28 03:50:11;;;;;;;40.80;22.38;;;-0.20;84.30;;;;;;4991369;28;20459;-76
2023/01/28 03:52:37;;;;;;;33.67;19.55;;;-0.20;84.40;;;;;;4991336;28;20455;-73
2023/01/28 03:55:12;;;;;;;37.78;20.60;;;-0.20;84.40;;;;;;4991379;28;20022;-74
2023/01/28 03:57:38;;;;;;;34.05;20.92;;;-0.10;84.30;;;;;;4991432;28;20034;-74
2023/01/28 04:00:04;;;;;;;31.15;18.85;;;-0.20;84.00;;;;;;4991238;28;20031;-76
2023/01/28 04:02:29;;;;;;;31.92;19.60;;;-0.20;84.20;;;;;;5058280;28;20103;-73
2023/01/28 04:04:57;;;;;;;30.80;19.10;;;-0.10;85.00;;;;;;4991361;28;20058;-74
2023/01/28 04:07:23;;;;;;;32.35;19.02;;;-0.10;84.00;;;;;;4991209;28;20069;-73
2023/01/28 04:09:49;;;;;;;31.55;18.65;;;0.00;83.80;;;;;;4991157;28;20095;-74
2023/01/28 04:12:14;;;;;;;32.17;17.67;;;-0.10;83.60;;;;;;4991292;28;20034;-73
2023/01/28 04:14:40;;;;;;;26.55;17.50;;;-0.10;83.60;;;;;;4991197;28;20030;-76
2023/01/28 04:17:09;;;;;;;31.63;18.77;;;-0.10;83.60;;;;;;4991013;28;20562;-76
2023/01/28 04:19:36;;;;;;;28.70;18.27;;;-0.10;83.60;;;;;;4991187;28;20084;-75
2023/01/28 04:22:04;;;;;;;29.77;18.25;;;-0.10;83.60;;;;;;4991238;28;20021;-77
2023/01/28 04:24:29;;;;;;;30.42;17.88;;;-0.10;83.60;;;;;;4991161;28;20030;-77
2023/01/28 04:26:55;;;;;;;29.58;17.92;;;0.00;83.60;;;;;;4990935;28;20498;-76
2023/01/28 04:29:20;;;;;;;29.90;17.98;;;-0.10;83.50;;;;;;4990798;28;20540;-80
2023/01/28 04:31:46;;;;;;;28.15;17.08;;;-0.10;83.50;;;;;;4991075;28;20409;-77
2023/01/28 04:34:11;;;;;;;31.02;17.85;;;-0.10;83.50;;;;;;4990977;28;20049;-78
2023/01/28 04:36:37;;;;;;;29.33;16.88;;;-0.10;83.60;;;;;;5074901;28;20019;-78
2023/01/28 04:39:02;;;;;;;30.15;18.60;;;-0.10;83.60;;;;;;4990863;28;20367;-75
2023/01/28 04:41:28;;;;;;;29.95;17.77;;;-0.10;83.60;;;;;;4990774;28;20031;-75
2023/01/28 04:43:54;;;;;;;32.55;18.88;;;-0.20;83.80;;;;;;4990688;28;20064;-75
2023/01/28 04:46:20;;;;;;;28.10;17.15;;;-0.20;83.90;;;;;;4990735;28;20129;-74
2023/01/28 04:48:46;;;;;;;29.17;17.88;;;-0.30;84.10;;;;;;4990683;28;20526;-74
2023/01/28 04:51:11;;;;;;;30.83;18.05;;;-0.20;84.20;;;;;;4990690;28;20487;-75
2023/01/28 04:53:37;;;;;;;29.55;17.65;;;-0.20;84.30;;;;;;4990523;28;20057;-75
2023/01/28 04:56:02;;;;;;;29.77;18.60;;;-0.20;84.20;;;;;;4990629;28;20023;-75
2023/01/28 04:58:28;;;;;;;27.27;17.48;;;-0.20;84.20;;;;;;4990778;28;20378;-75
2023/01/28 05:00:57;;;;;;;32.53;18.95;;;-0.20;84.40;;;;;;4994138;28;20038;-74
2023/01/28 05:03:23;;;;;;;28.35;17.48;;;-0.30;84.60;;;;;;4994343;28;20106;-75
2023/01/28 05:05:49;;;;;;;28.80;17.17;;;-0.30;84.70;;;;;;4994037;28;20490;-75
2023/01/28 05:08:14;;;;;;;30.90;17.58;;;-0.20;84.60;;;;;;5078677;28;20046;-74
2023/01/28 05:10:40;;;;;;;29.45;18.13;;;-0.20;84.70;;;;;;4994084;28;20026;-77
2023/01/28 05:13:05;;;;;;;31.23;18.25;;;-0.20;84.60;;;;;;4993956;28;20030;-75
2023/01/28 05:15:31;;;;;;;30.25;18.40;;;-0.20;84.70;;;;;;4993833;28;20023;-75
2023/01/28 05:17:57;;;;;;;29.00;18.23;;;-0.20;84.80;;;;;;4993848;28;20022;-74
2023/01/28 05:20:23;;;;;;;33.67;18.52;;;-0.30;85.10;;;;;;4993815;28;20336;-75
2023/01/28 05:22:48;;;;;;;29.77;18.25;;;-0.30;85.40;;;;;;4993790;28;20026;-77
2023/01/28 05:25:14;;;;;;;32.75;19.08;;;-0.30;85.40;;;;;;4993721;28;20493;-73
2023/01/28 05:27:39;;;;;;;29.95;18.45;;;-0.30;85.60;;;;;;4993635;28;20467;-74
2023/01/28 05:30:06;;;;;;;29.65;17.70;;;-0.50;86.10;;;;;;4993500;28;20059;-77
2023/01/28 05:32:32;;;;;;;30.98;18.17;;;-0.50;86.60;;;;;;4993708;28;20037;-77
2023/01/28 05:34:57;;;;;;;29.55;18.02;;;-0.50;86.50;;;;;;4993697;28;20041;-77
2023/01/28 05:37:23;;;;;;;33.65;19.23;;;-0.50;86.90;;;;;;4993527;28;20026;-76
2023/01/28 05:39:48;;;;;;;30.23;18.42;;;-0.50;86.90;;;;;;4993524;28;20026;-76
2023/01/28 05:42:14;;;;;;;32.42;17.98;;;-0.40;86.80;;;;;;4993483;28;20033;-78
2023/01/28 05:44:40;;;;;;;33.10;18.50;;;-0.40;86.60;;;;;;4993425;28;20018;-78
2023/01/28 05:47:06;;;;;;;38.47;19.27;;;-0.40;86.40;;;;;;4993402;28;20376;-78
2023/01/28 05:49:32;;;;;;;32.03;18.38;;;-0.40;86.20;;;;;;4993450;28;20422;-77
2023/01/28 05:51:58;;;;;;;31.10;18.33;;;-0.30;86.30;;;;;;4993301;28;20084;-75
2023/01/28 05:54:23;;;;;;;34.55;18.80;;;-0.30;86.10;;;;;;4993253;28;20368;-75
2023/01/28 05:56:49;;;;;;;28.77;17.15;;;-0.30;86.00;;;;;;4993182;28;20018;-78
2023/01/28 05:59:14;;;;;;;27.60;16.95;;;-0.20;86.10;;;;;;4993282;28;20087;-78
2023/01/28 06:01:40;;;;;;;28.65;16.95;;;-0.20;85.90;;;;;;4993049;28;20066;-77
2023/01/28 06:04:06;;;;;;;29.83;18.85;;;-0.10;85.30;;;;;;4993223;28;20027;-77
2023/01/28 06:06:32;;;;;;;28.02;15.13;;;-0.20;85.00;;;;;;4993042;28;20105;-78
2023/01/28 06:08:58;;;;;;;26.67;15.55;;;-0.10;85.20;;;;;;4993300;28;20072;-77
2023/01/28 06:11:23;;;;;;;22.95;13.85;;;-0.10;84.20;;;;;;4992403;28;20101;-75
2023/01/28 06:13:49;;;;;;;24.27;14.63;;;-0.10;84.00;;;;;;4993070;28;20067;-75
2023/01/28 06:16:14;;;;;;;27.80;16.55;;;-0.10;83.70;;;;;;5077510;28;20033;-74
2023/01/28 06:18:40;;;;;;;31.98;17.67;;;-0.10;83.80;;;;;;4993045;28;20022;-75
2023/01/28 06:21:06;;;;;;;30.95;18.83;;;-0.20;83.90;;;;;;4992092;28;20463;-74
2023/01/28 06:23:31;;;;;;;28.67;17.85;;;-0.20;84.20;;;;;;4992069;28;20026;-77
2023/01/28 06:25:57;;;;;;;29.92;18.63;;;-0.20;84.50;;;;;;4992292;28;20096;-77
2023/01/28 06:28:23;;;;;;;29.17;18.08;;;-0.30;84.70;;;;;;4992567;28;20038;-76
2023/01/28 06:30:50;;;;;;;28.65;16.65;;;-0.30;85.00;;;;;;4992497;28;20351;-76
2023/01/28 06:33:16;;;;;;;30.80;18.52;;;-0.30;85.10;;;;;;4992705;28;20031;-76
2023/01/28 06:35:43;;;;;;;31.50;18.10;;;-0.30;85.20;;;;;;5060027;28;20463;-75
2023/01/28 06:38:09;;;;;;;31.17;18.80;;;-0.40;85.40;;;;;;4992556;28;20026;-77
2023/01/28 06:40:35;;;;;;;29.27;17.13;;;-0.40;85.40;;;;;;4992490;28;20072;-76
2023/01/28 06:43:00;;;;;;;29.13;18.20;;;-0.30;85.60;;;;;;4992512;28;20034;-77
2023/01/28 06:45:26;;;;;;;29.55;17.73;;;-0.30;85.70;;;;;;4992210;28;20424;-77
2023/01/28 06:47:51;;;;;;;31.58;18.40;;;-0.30;85.70;;;;;;4995424;28;20042;-77
2023/01/28 06:50:17;;;;;;;33.75;18.92;;;-0.30;85.80;;;;;;4992407;28;20027;-76
2023/01/28 06:52:43;;;;;;;31.88;18.73;;;-0.30;85.80;;;;;;4992511;28;20026;-77
2023/01/28 06:55:08;;;;;;;31.15;18.73;;;-0.30;86.70;;;;;;4992332;28;20034;-76
2023/01/28 06:57:40;;;;;;;31.10;18.17;;;-0.30;86.60;;;;;;4992230;28;20030;-76
2023/01/28 07:00:09;;;;;;;29.85;17.83;;;-0.30;85.90;;;;;;4992231;28;20041;-75
2023/01/28 07:02:36;;;;;;;29.10;17.92;;;-0.30;85.80;;;;;;4992086;28;20026;-76
2023/01/28 07:05:03;;;;;;;30.00;17.85;;;-0.30;85.90;;;;;;4992246;28;20026;-77
2023/01/28 07:07:28;;;;;;;29.27;17.50;;;-0.30;85.80;;;;;;4991904;28;20031;-76
2023/01/28 07:09:54;;;;;;;29.95;17.42;;;-0.20;85.50;;;;;;4992040;28;20050;-77
2023/01/28 07:12:19;;;;;;;32.25;18.23;;;-0.20;85.40;;;;;;4991965;28;20076;-77
2023/01/28 07:14:45;;;;;;;27.38;16.60;;;-0.20;86.10;;;;;;5059206;28;20044;-77
2023/01/28 07:17:11;;;;;;;29.00;16.65;;;-0.20;85.40;;;;;;4991827;28;20054;-77
2023/01/28 07:19:36;;;;;;;30.45;17.58;;;-0.30;85.20;;;;;;4991949;28;20033;-77
2023/01/28 07:22:02;;;;;;;31.75;18.02;;;-0.30;85.40;;;;;;4991119;28;20084;-78
2023/01/28 07:24:28;;;;;;;35.40;18.67;;;-0.30;85.60;;;;;;4991530;28;20018;-76
2023/01/28 07:26:54;;;;;;;30.38;18.00;;;-0.30;85.80;;;;;;4991659;28;20022;-77
2023/01/28 07:29:20;;;;;;;28.90;17.02;;;-0.30;85.90;;;;;;4991649;28;20030;-77
2023/01/28 07:31:45;;;;;;;31.83;18.00;;;-0.20;85.90;;;;;;4991639;28;20079;-77
2023/01/28 07:34:11;;;;;;;27.45;16.85;;;-0.20;85.90;;;;;;4991587;28;20071;-77
2023/01/28 07:36:36;;;;;;;30.40;17.08;;;-0.20;85.80;;;;;;4991627;28;20027;-77
2023/01/28 07:39:02;;;;;;;28.05;17.00;;;-0.20;85.70;;;;;;4991481;28;20037;-74
2023/01/28 07:41:28;;;;;;;28.60;17.83;;;-0.10;85.80;;;;;;4991605;28;20037;-75
2023/01/28 07:44:00;;;;;;;36.88;20.00;;;-0.10;85.70;;;;;;5126717;27;20392;-76
2023/01/28 07:46:26;;;;;;;34.15;19.50;;;0.00;85.70;;;;;;5110995;28;20086;-77
2023/01/28 07:48:52;;;;;;;34.80;19.50;;;0.00;85.00;;;;;;5119285;28;20024;-78
2023/01/28 07:51:17;;;;;;;30.20;18.60;;;0.00;84.90;;;;;;5111744;28;20024;-77
2023/01/28 07:53:43;;;;;;;30.27;17.88;;;0.00;84.80;;;;;;5111298;28;20015;-76
2023/01/28 07:56:08;;;;;;;33.42;18.70;;;0.00;84.70;;;;;;5111191;28;20024;-80
2023/01/28 07:58:34;;;;;;;27.77;16.95;;;0.00;84.60;;;;;;5110932;28;20020;-75
2023/01/28 08:01:06;;;;;;;26.73;17.15;;;0.10;84.80;;;;;;5110934;28;20068;-78
2023/01/28 08:03:32;;;;;;;28.15;17.08;;;0.10;84.60;;;;;;5110543;28;20115;-76
2023/01/28 08:05:57;;;;;;;24.63;15.30;;;0.20;84.30;;;;;;5110478;28;20108;-78
2023/01/28 08:08:24;;;;;;;27.35;16.33;;;0.20;84.10;;;;;;5110408;28;20085;-79
2023/01/28 08:10:50;;;;;;;25.60;15.80;;;0.30;84.90;;;;;;5110389;28;20028;-78
2023/01/28 08:13:17;;;;;;;26.42;16.83;;;0.40;84.90;;;;;;5110592;28;20032;-79
2023/01/28 08:15:43;;;;;;;31.75;17.70;;;0.50;84.70;;;;;;5108925;28;20073;-76
2023/01/28 08:18:12;;;;;;;28.90;17.00;;;1.00;91.00;;;;;;5109156;28;20035;-77
2023/01/28 08:20:38;;;;;;;28.98;15.68;;;1.50;90.10;;;;;;5110169;28;20015;-75
2023/01/28 08:23:16;;;;;;;20.73;14.02;;;2.00;85.00;;;;;;5110133;28;20036;-74
2023/01/28 08:25:42;;;;;;;21.10;12.70;;;2.60;81.60;;;;;;5110327;28;20100;-75
2023/01/28 08:28:08;;;;;;;20.13;12.27;;;3.10;78.60;;;;;;5109729;28;20460;-73
2023/01/28 08:30:36;;;;;;;18.92;12.18;;;3.40;76.30;;;;;;5109966;28;20387;-75
2023/01/28 08:33:02;;;;;;;17.80;11.88;;;3.60;73.20;;;;;;5110104;28;20020;-74
2023/01/28 08:35:28;;;;;;;20.90;12.30;;;3.70;72.30;;;;;;5109787;28;20024;-74
2023/01/28 08:37:54;;;;;;;19.73;12.18;;;3.90;71.40;;;;;;5109870;28;20040;-75
2023/01/28 08:40:21;;;;;;;20.38;13.20;;;4.00;70.90;;;;;;5109684;28;20400;-75
2023/01/28 08:42:52;;;;;;;24.10;14.32;;;4.10;70.40;;;;;;5117440;28;20449;-74
2023/01/28 08:45:21;;;;;;;21.58;13.77;;;3.90;68.50;;;;;;5109682;28;20020;-74
2023/01/28 08:47:55;;;;;;;21.60;13.45;;;3.30;68.90;;;;;;5109562;28;20024;-74
2023/01/28 08:50:22;;;;;;;24.40;15.20;;;3.00;70.50;;;;;;5108413;28;20387;-74
2023/01/28 08:52:54;;;;;;;23.70;15.32;;;2.50;71.80;;;;;;5109452;28;20024;-74
2023/01/28 08:55:19;;;;;;;23.48;14.88;;;2.10;73.80;;;;;;5096017;28;20099;-75
2023/01/28 08:57:45;;;;;;;24.70;15.57;;;1.60;76.30;;;;;;5095933;28;20101;-74
2023/01/28 09:00:11;;;;;;;24.00;15.32;;;1.30;77.80;;;;;;5095887;28;20036;-75
2023/01/28 09:02:37;;;;;;;24.08;15.77;;;1.20;78.30;;;;;;5095575;28;20032;-74
2023/01/28 09:05:04;;;;;;;23.88;15.27;;;1.10;79.30;;;;;;5095556;28;20024;-74
2023/01/28 09:07:31;;;;;;;25.88;15.55;;;0.90;80.00;;;;;;5095712;28;20116;-74
2023/01/28 09:09:56;;;;;;;23.85;14.90;;;0.90;80.50;;;;;;5094508;28;20024;-74
2023/01/28 09:12:22;;;;;;;22.88;15.05;;;0.90;81.20;;;;;;5095398;28;20028;-74
2023/01/28 09:14:48;;;;;;;22.77;15.32;;;1.00;80.40;;;;;;5095389;28;20024;-75
2023/01/28 09:17:13;;;;;;;25.17;15.45;;;1.10;80.30;;;;;;5095340;28;20020;-74
2023/01/28 09:19:39;;;;;;;22.80;14.63;;;1.10;80.20;;;;;;5093946;28;20028;-74
2023/01/28 09:22:05;;;;;;;25.95;15.45;;;1.20;79.70;;;;;;5095160;28;20035;-74
2023/01/28 09:24:30;;;;;;;27.73;17.15;;;1.30;79.40;;;;;;5095152;28;20024;-74
2023/01/28 09:26:56;;;;;;;25.55;15.93;;;1.20;79.20;;;;;;5094730;28;20528;-74
2023/01/28 09:29:21;;;;;;;25.42;15.57;;;1.20;79.60;;;;;;5094716;28;20032;-74
2023/01/28 09:31:48;;;;;;;22.13;14.52;;;1.20;79.70;;;;;;5094820;28;20020;-74
2023/01/28 09:34:13;;;;;;;28.98;15.40;;;1.30;79.90;;;;;;5094061;28;20030;-75
2023/01/28 09:36:39;;;;;;;22.95;15.90;;;1.30;79.80;;;;;;5094335;28;20435;-75
2023/01/28 09:39:07;;;;;;;24.77;15.43;;;1.40;79.40;;;;;;5093221;28;20093;-76
2023/01/28 09:42:02;;;;;;;22.52;13.93;;;1.50;79.40;;;;;;5092560;28;20024;-76
2023/01/28 09:44:53;;;;;;;20.23;13.23;;;1.60;79.10;;;;;;5092736;28;20107;-75
2023/01/28 09:47:42;;;;;;;20.08;12.73;;;1.80;78.90;;;;;;5091721;28;20069;-76
2023/01/28 09:50:14;;;;;;;23.23;14.27;;;2.00;78.50;;;;;;5092476;28;20016;-75
2023/01/28 09:52:41;;;;;;;21.98;13.65;;;2.10;77.50;;;;;;5092688;28;20028;-75
2023/01/28 09:55:18;;;;;;;21.98;13.73;;;2.20;76.00;;;;;;5092809;28;20440;-75
2023/01/28 09:57:50;;;;;;;26.45;14.82;;;2.30;75.80;;;;;;5092800;28;20020;-74
2023/01/28 10:00:23;;;;;;;22.92;14.77;;;2.30;75.80;;;;;;5090899;28;20507;-74
2023/01/28 10:02:59;;;;;;;26.98;16.35;;;2.10;76.10;;;;;;5092425;28;20032;-73
2023/01/28 10:05:49;;;;;;;24.33;15.95;;;1.90;76.90;;;;;;5091185;28;20024;-74
2023/01/28 10:08:40;;;;;;;26.05;15.43;;;1.80;77.50;;;;;;5090391;28;20438;-74
2023/01/28 10:11:47;;;;;;;26.73;16.10;;;1.70;78.30;;;;;;5090395;28;20024;-76
2023/01/28 10:14:16;;;;;;;25.00;15.63;;;1.50;79.00;;;;;;5082655;28;20032;-75
2023/01/28 10:16:50;;;;;;;23.45;15.55;;;1.40;79.20;;;;;;5092579;28;20380;-76
2023/01/28 10:19:22;;;;;;;23.98;15.82;;;1.40;79.30;;;;;;5089351;28;20090;-77
2023/01/28 10:22:01;;;;;;;22.67;14.80;;;1.40;79.50;;;;;;5092340;28;20042;-74
2023/01/28 10:24:37;;;;;;;26.80;16.95;;;1.40;79.20;;;;;;5092033;28;20031;-74
2023/01/28 10:27:15;;;;;;;26.95;16.50;;;1.40;79.30;;;;;;5092227;28;20447;-75
2023/01/28 10:29:44;;;;;;;25.60;16.77;;;1.50;79.10;;;;;;5090544;28;20055;-75
2023/01/28 10:32:16;;;;;;;25.20;16.52;;;1.60;78.90;;;;;;5089475;28;20113;-74
2023/01/28 10:34:42;;;;;;;29.55;17.83;;;1.50;78.80;;;;;;5091903;28;20016;-75
2023/01/28 10:37:13;;;;;;;25.92;15.65;;;1.50;79.10;;;;;;5091950;28;20016;-76
2023/01/28 10:39:39;;;;;;;26.23;16.70;;;1.60;79.30;;;;;;5091724;28;20122;-76
2023/01/28 10:42:43;;;;;;;26.10;16.13;;;1.60;79.00;;;;;;5089790;28;20039;-75
2023/01/28 10:45:29;;;;;;;30.38;17.58;;;1.70;79.00;;;;;;5087480;28;20028;-73
2023/01/28 10:47:58;;;;;;;27.20;17.40;;;1.60;78.50;;;;;;5090674;28;20165;-74
2023/01/28 10:50:26;;;;;;;27.88;17.58;;;1.70;78.60;;;;;;5089227;28;20031;-74
2023/01/28 10:53:04;;;;;;;33.22;17.95;;;1.70;78.50;;;;;;5091698;28;20365;-74
2023/01/28 10:55:36;;;;;;;23.77;16.48;;;1.70;78.60;;;;;;5089880;28;20008;-75
2023/01/28 10:58:03;;;;;;;27.92;17.38;;;1.70;78.80;;;;;;5091844;28;20092;-76
2023/01/28 11:00:37;;;;;;;27.75;16.77;;;1.70;78.50;;;;;;5091848;28;20022;-76
2023/01/28 11:03:03;;;;;;;29.05;17.05;;;1.70;78.50;;;;;;5091939;28;20040;-74
2023/01/28 11:05:30;;;;;;;26.65;16.98;;;1.60;78.30;;;;;;5091333;28;20500;-76
2023/01/28 11:08:15;;;;;;;27.65;18.02;;;1.70;78.50;;;;;;5091497;28;20178;-77
2023/01/28 11:10:42;;;;;;;28.98;17.95;;;1.70;78.70;;;;;;5090917;28;20020;-76
2023/01/28 11:13:19;;;;;;;26.70;15.90;;;1.80;78.40;;;;;;5091513;28;20118;-75
2023/01/28 11:15:51;;;;;;;26.73;16.50;;;1.90;78.20;;;;;;5088892;28;20024;-75
2023/01/28 11:18:47;;;;;;;21.63;14.45;;;2.00;77.50;;;;;;5091200;28;20016;-74
2023/01/28 11:21:22;;;;;;;28.88;16.33;;;2.10;77.70;;;;;;5084956;28;20551;-74
2023/01/28 11:24:13;;;;;;;18.70;12.20;;;2.30;77.20;;;;;;5088939;28;20058;-73
2023/01/28 11:26:43;;;;;;;16.23;10.00;;;2.30;76.10;;;;;;5090400;28;20028;-74
2023/01/28 11:29:33;;;;;;;14.25;8.93;;;2.40;74.70;;;;;;5091232;28;20387;-76
2023/01/28 11:31:59;;;;;;;13.13;8.82;;;2.50;72.80;;;;;;5089412;28;20050;-73
2023/01/28 11:34:33;;;;;;;18.23;10.88;;;2.50;71.70;;;;;;5090073;28;20020;-76
2023/01/28 11:37:15;;;;;;;20.83;13.73;;;2.50;71.70;;;;;;5091265;28;20084;-76
2023/01/28 11:39:40;;;;;;;30.17;17.98;;;2.60;72.90;;;;;;5091165;28;20299;-74
2023/01/28 11:42:17;;;;;;;22.52;14.27;;;2.50;74.10;;;;;;5090797;28;20051;-75
2023/01/28 11:44:43;;;;;;;23.85;15.77;;;2.50;74.50;;;;;;5090714;28;20031;-74
2023/01/28 11:47:27;;;;;;;26.00;16.33;;;2.50;74.50;;;;;;5089630;28;20017;-76
2023/01/28 11:50:04;;;;;;;24.00;14.98;;;2.30;75.30;;;;;;5089579;28;20032;-73
2023/01/28 11:53:04;;;;;;;25.92;15.60;;;2.20;75.40;;;;;;5089188;28;20509;-74
2023/01/28 11:55:54;;;;;;;28.80;17.10;;;2.00;76.20;;;;;;5088904;28;20024;-73
2023/01/28 11:58:25;;;;;;;26.25;16.73;;;1.90;76.80;;;;;;5090283;28;20024;-74
2023/01/28 12:01:03;;;;;;;29.38;17.65;;;1.80;77.30;;;;;;5091778;28;20055;-75
2023/01/28 12:03:56;;;;;;;25.70;16.35;;;1.80;77.70;;;;;;5092522;28;20380;-74
2023/01/28 12:06:57;;;;;;;30.67;17.60;;;1.80;77.80;;;;;;5092514;28;20464;-75
2023/01/28 12:09:28;;;;;;;26.58;16.67;;;1.90;78.00;;;;;;5092582;28;20031;-75
2023/01/28 12:12:13;;;;;;;26.92;16.30;;;1.90;78.00;;;;;;5092460;28;20025;-75
2023/01/28 12:14:44;;;;;;;24.90;15.55;;;2.00;77.20;;;;;;5092471;28;20019;-74
2023/01/28 12:17:31;;;;;;;24.50;15.70;;;2.00;76.30;;;;;;5091334;28;20081;-74
2023/01/28 12:20:11;;;;;;;22.17;13.70;;;2.00;76.40;;;;;;5092678;28;20020;-75
2023/01/28 12:22:58;;;;;;;21.92;14.15;;;2.10;77.40;;;;;;5092116;28;20028;-75
2023/01/28 12:25:55;;;;;;;25.38;16.27;;;2.10;76.50;;;;;;5092256;28;20020;-74
2023/01/28 12:28:56;;;;;;;24.55;15.18;;;2.10;76.10;;;;;;5092286;28;20036;-74
2023/01/28 12:31:28;;;;;;;24.35;15.18;;;2.00;76.00;;;;;;5096334;28;20020;-74
2023/01/28 12:34:23;;;;;;;21.00;14.10;;;1.90;76.40;;;;;;5096322;28;20026;-75
2023/01/28 12:37:06;;;;;;;21.15;13.23;;;1.90;76.50;;;;;;5088122;28;20043;-76
2023/01/28 12:39:46;;;;;;;25.45;15.18;;;2.00;76.30;;;;;;5096264;28;20024;-75
2023/01/28 12:42:52;;;;;;;22.63;13.98;;;2.00;76.20;;;;;;5095869;28;20047;-76
2023/01/28 12:45:44;;;;;;;23.75;15.27;;;1.90;75.90;;;;;;5072485;28;20037;-74
2023/01/28 12:48:27;;;;;;;22.30;14.18;;;1.90;76.20;;;;;;5074832;28;20029;-75
2023/01/28 12:51:12;;;;;;;25.08;14.38;;;1.90;76.50;;;;;;5090451;28;20435;-74
2023/01/28 12:54:06;;;;;;;23.42;14.88;;;2.00;76.50;;;;;;5095609;28;20024;-74
2023/01/28 12:56:41;;;;;;;21.08;14.38;;;2.00;76.20;;;;;;5079193;28;20036;-76
2023/01/28 12:59:21;;;;;;;25.50;15.38;;;2.00;76.30;;;;;;5095482;28;20016;-76
2023/01/28 13:02:01;;;;;;;26.65;15.18;;;2.10;76.10;;;;;;5095405;28;20062;-74
2023/01/28 13:04:50;;;;;;;28.48;16.10;;;2.00;75.80;;;;;;5095704;28;20016;-74
2023/01/28 13:07:33;;;;;;;25.20;15.63;;;2.00;75.90;;;;;;5095440;28;20499;-75
2023/01/28 13:10:08;;;;;;;23.63;14.32;;;2.00;76.00;;;;;;5095437;28;20024;-73
2023/01/28 13:12:37;;;;;;;22.10;14.07;;;2.00;75.90;;;;;;5095288;28;20403;-73
2023/01/28 13:15:05;;;;;;;21.85;13.40;;;1.90;75.90;;;;;;5095001;28;20031;-73
2023/01/28 13:17:31;;;;;;;24.30;14.18;;;1.90;76.00;;;;;;5095115;28;20476;-73
2023/01/28 13:20:00;;;;;;;21.27;13.98;;;1.90;77.30;;;;;;5095388;28;20031;-73